sensor_id;sensor_type;location;lat;lon;timestamp;temperature;humidity
37204;DHT22;23098;48.054;10.636;2023-11-21T00:00:54;6.80;99.90
37204;DHT22;23098;48.054;10.636;2023-11-21T00:03:20;6.70;99.90
37204;DHT22;23098;48.054;10.636;2023-11-21T00:05:48;6.70;99.90
37204;DHT22;23098;48.054;10.636;2023-11-21T00:08:14;6.70;99.90
37204;DHT22;23098;48.054;10.636;2023-11-21T00:10:39;6.70;99.90
37204;DHT22;23098;48.054;10.636;2023-11-21T00:13:05;6.70;99.90
37204;DHT22;23098;48.054;10.636;2023-11-21T00:15:30;6.70;99.90
37204;DHT22;23098;48.054;10.636;2023-11-21T00:17:56;6.70;99.90
37204;DHT22;23098;48.054;10.636;2023-11-21T00:20:21;6.70;99.90
37204;DHT22;23098;48.054;10.636;2023-11-21T00:22:47;6.70;99.90
37204;DHT22;23098;48.054;10.636;2023-11-21T00:25:13;6.70;99.90
37204;DHT22;23098;48.054;10.636;2023-11-21T00:27:42;6.70;99.90
37204;DHT22;23098;48.054;10.636;2023-11-21T00:30:07;6.70;99.90
37204;DHT22;23098;48.054;10.636;2023-11-21T00:32:35;6.70;99.90
37204;DHT22;23098;48.054;10.636;2023-11-21T00:35:01;6.60;99.90
37204;DHT22;23098;48.054;10.636;2023-11-21T00:37:28;6.60;99.90
37204;DHT22;23098;48.054;10.636;2023-11-21T00:39:54;6.70;99.90
37204;DHT22;23098;48.054;10.636;2023-11-21T00:42:20;6.90;99.90
37204;DHT22;23098;48.054;10.636;2023-11-21T00:44:47;6.90;99.90
37204;DHT22;23098;48.054;10.636;2023-11-21T00:47:12;7.00;99.90
37204;DHT22;23098;48.054;10.636;2023-11-21T00:49:38;7.10;99.90
37204;DHT22;23098;48.054;10.636;2023-11-21T00:52:04;7.10;99.90
37204;DHT22;23098;48.054;10.636;2023-11-21T00:54:30;7.10;99.90
37204;DHT22;23098;48.054;10.636;2023-11-21T00:56:56;7.00;99.90
37204;DHT22;23098;48.054;10.636;2023-11-21T00:59:22;7.10;99.90
37204;DHT22;23098;48.054;10.636;2023-11-21T01:01:48;7.10;99.90
37204;DHT22;23098;48.054;10.636;2023-11-21T01:04:15;7.00;99.90
37204;DHT22;23098;48.054;10.636;2023-11-21T01:06:41;6.90;99.90
37204;DHT22;23098;48.054;10.636;2023-11-21T01:09:06;6.90;99.90
37204;DHT22;23098;48.054;10.636;2023-11-21T01:11:34;6.90;99.90
37204;DHT22;23098;48.054;10.636;2023-11-21T01:14:03;6.80;99.90
37204;DHT22;23098;48.054;10.636;2023-11-21T01:16:29;6.90;99.90
37204;DHT22;23098;48.054;10.636;2023-11-21T01:18:55;6.90;99.90
37204;DHT22;23098;48.054;10.636;2023-11-21T01:21:20;6.90;99.90
37204;DHT22;23098;48.054;10.636;2023-11-21T01:23:47;6.80;99.90
37204;DHT22;23098;48.054;10.636;2023-11-21T01:26:12;6.90;99.90
37204;DHT22;23098;48.054;10.636;2023-11-21T01:28:38;6.90;99.90
37204;DHT22;23098;48.054;10.636;2023-11-21T01:31:04;6.80;99.90
37204;DHT22;23098;48.054;10.636;2023-11-21T01:33:29;6.80;99.90
37204;DHT22;23098;48.054;10.636;2023-11-21T01:35:55;6.70;99.90
37204;DHT22;23098;48.054;10.636;2023-11-21T01:38:21;6.70;99.90
37204;DHT22;23098;48.054;10.636;2023-11-21T01:40:47;6.70;99.90
37204;DHT22;23098;48.054;10.636;2023-11-21T01:43:13;6.60;99.90
37204;DHT22;23098;48.054;10.636;2023-11-21T01:45:38;6.60;99.90
37204;DHT22;23098;48.054;10.636;2023-11-21T01:48:05;6.60;99.90
37204;DHT22;23098;48.054;10.636;2023-11-21T01:50:32;6.60;99.90
37204;DHT22;23098;48.054;10.636;2023-11-21T01:52:59;6.60;99.90
37204;DHT22;23098;48.054;10.636;2023-11-21T01:55:26;6.60;99.90
37204;DHT22;23098;48.054;10.636;2023-11-21T01:57:52;6.60;99.90
37204;DHT22;23098;48.054;10.636;2023-11-21T02:00:18;6.70;99.90
37204;DHT22;23098;48.054;10.636;2023-11-21T02:02:48;6.60;99.90
37204;DHT22;23098;48.054;10.636;2023-11-21T02:05:18;6.60;99.90
37204;DHT22;23098;48.054;10.636;2023-11-21T02:07:44;6.60;99.90
37204;DHT22;23098;48.054;10.636;2023-11-21T02:10:11;6.60;99.90
37204;DHT22;23098;48.054;10.636;2023-11-21T02:12:40;6.60;99.90
37204;DHT22;23098;48.054;10.636;2023-11-21T02:15:08;6.60;99.90
37204;DHT22;23098;48.054;10.636;2023-11-21T02:17:35;6.60;99.90
37204;DHT22;23098;48.054;10.636;2023-11-21T02:20:02;6.60;99.90
37204;DHT22;23098;48.054;10.636;2023-11-21T02:22:30;6.50;99.90
37204;DHT22;23098;48.054;10.636;2023-11-21T02:24:58;6.50;99.90
37204;DHT22;23098;48.054;10.636;2023-11-21T02:27:24;6.60;99.90
37204;DHT22;23098;48.054;10.636;2023-11-21T02:29:50;6.60;99.90
37204;DHT22;23098;48.054;10.636;2023-11-21T02:32:15;6.60;99.90
37204;DHT22;23098;48.054;10.636;2023-11-21T02:34:44;6.60;99.90
37204;DHT22;23098;48.054;10.636;2023-11-21T02:37:10;6.60;99.90
37204;DHT22;23098;48.054;10.636;2023-11-21T02:39:35;6.60;99.90
37204;DHT22;23098;48.054;10.636;2023-11-21T02:42:01;6.60;99.90
37204;DHT22;23098;48.054;10.636;2023-11-21T02:44:28;6.60;99.90
37204;DHT22;23098;48.054;10.636;2023-11-21T02:46:53;6.60;99.90
37204;DHT22;23098;48.054;10.636;2023-11-21T02:49:19;6.60;99.90
37204;DHT22;23098;48.054;10.636;2023-11-21T02:51:44;6.60;99.90
37204;DHT22;23098;48.054;10.636;2023-11-21T02:54:11;6.60;99.90
37204;DHT22;23098;48.054;10.636;2023-11-21T02:56:37;6.50;99.90
37204;DHT22;23098;48.054;10.636;2023-11-21T02:59:02;6.50;99.90
37204;DHT22;23098;48.054;10.636;2023-11-21T03:01:28;6.50;99.90
37204;DHT22;23098;48.054;10.636;2023-11-21T03:03:56;6.50;99.90
37204;DHT22;23098;48.054;10.636;2023-11-21T03:06:22;6.40;99.90
37204;DHT22;23098;48.054;10.636;2023-11-21T03:08:49;6.50;99.90
37204;DHT22;23098;48.054;10.636;2023-11-21T03:11:14;6.40;99.90
37204;DHT22;23098;48.054;10.636;2023-11-21T03:13:41;6.40;99.90
37204;DHT22;23098;48.054;10.636;2023-11-21T03:16:08;6.50;99.90
37204;DHT22;23098;48.054;10.636;2023-11-21T03:18:34;6.50;99.90
37204;DHT22;23098;48.054;10.636;2023-11-21T03:21:00;6.40;99.90
37204;DHT22;23098;48.054;10.636;2023-11-21T03:23:25;6.40;99.90
37204;DHT22;23098;48.054;10.636;2023-11-21T03:25:51;6.40;99.90
37204;DHT22;23098;48.054;10.636;2023-11-21T03:28:16;6.40;99.90
37204;DHT22;23098;48.054;10.636;2023-11-21T03:30:43;6.30;99.90
37204;DHT22;23098;48.054;10.636;2023-11-21T03:33:08;6.30;99.90
37204;DHT22;23098;48.054;10.636;2023-11-21T03:35:34;6.30;99.90
37204;DHT22;23098;48.054;10.636;2023-11-21T03:37:59;6.20;99.90
37204;DHT22;23098;48.054;10.636;2023-11-21T03:40:26;6.10;99.90
37204;DHT22;23098;48.054;10.636;2023-11-21T03:42:51;6.00;99.90
37204;DHT22;23098;48.054;10.636;2023-11-21T03:45:17;6.00;99.90
37204;DHT22;23098;48.054;10.636;2023-11-21T03:47:43;6.00;99.90
37204;DHT22;23098;48.054;10.636;2023-11-21T03:50:08;6.00;99.90
37204;DHT22;23098;48.054;10.636;2023-11-21T03:52:34;6.00;99.90
37204;DHT22;23098;48.054;10.636;2023-11-21T03:55:01;6.00;99.90
37204;DHT22;23098;48.054;10.636;2023-11-21T03:57:26;6.10;99.90
37204;DHT22;23098;48.054;10.636;2023-11-21T03:59:53;6.10;99.90
37204;DHT22;23098;48.054;10.636;2023-11-21T04:02:19;6.00;99.90
37204;DHT22;23098;48.054;10.636;2023-11-21T04:04:44;6.00;99.90
37204;DHT22;23098;48.054;10.636;2023-11-21T04:07:10;6.10;99.90
37204;DHT22;23098;48.054;10.636;2023-11-21T04:09:36;6.10;99.90
37204;DHT22;23098;48.054;10.636;2023-11-21T04:12:02;6.10;99.90
37204;DHT22;23098;48.054;10.636;2023-11-21T04:14:28;6.00;99.90
37204;DHT22;23098;48.054;10.636;2023-11-21T04:16:53;6.00;99.90
37204;DHT22;23098;48.054;10.636;2023-11-21T04:19:19;6.00;99.90
37204;DHT22;23098;48.054;10.636;2023-11-21T04:21:45;6.00;99.90
37204;DHT22;23098;48.054;10.636;2023-11-21T04:24:11;6.00;99.90
37204;DHT22;23098;48.054;10.636;2023-11-21T04:26:37;6.00;99.90
37204;DHT22;23098;48.054;10.636;2023-11-21T04:29:03;6.00;99.90
37204;DHT22;23098;48.054;10.636;2023-11-21T04:31:28;6.00;99.90
37204;DHT22;23098;48.054;10.636;2023-11-21T04:33:54;6.00;99.90
37204;DHT22;23098;48.054;10.636;2023-11-21T04:36:35;6.00;99.90
37204;DHT22;23098;48.054;10.636;2023-11-21T04:39:01;6.00;99.90
37204;DHT22;23098;48.054;10.636;2023-11-21T04:41:26;6.00;99.90
37204;DHT22;23098;48.054;10.636;2023-11-21T04:43:53;6.00;99.90
37204;DHT22;23098;48.054;10.636;2023-11-21T04:46:19;6.00;99.90
37204;DHT22;23098;48.054;10.636;2023-11-21T04:48:44;6.00;99.90
37204;DHT22;23098;48.054;10.636;2023-11-21T04:51:11;6.00;99.90
37204;DHT22;23098;48.054;10.636;2023-11-21T04:53:38;6.00;99.90
37204;DHT22;23098;48.054;10.636;2023-11-21T04:56:05;6.00;99.90
37204;DHT22;23098;48.054;10.636;2023-11-21T04:58:30;6.00;99.90
37204;DHT22;23098;48.054;10.636;2023-11-21T05:00:57;6.00;99.90
37204;DHT22;23098;48.054;10.636;2023-11-21T05:03:22;6.00;99.90
37204;DHT22;23098;48.054;10.636;2023-11-21T05:05:49;6.00;99.90
37204;DHT22;23098;48.054;10.636;2023-11-21T05:08:14;5.90;99.90
37204;DHT22;23098;48.054;10.636;2023-11-21T05:10:40;5.90;99.90
37204;DHT22;23098;48.054;10.636;2023-11-21T05:13:06;5.90;99.90
37204;DHT22;23098;48.054;10.636;2023-11-21T05:15:36;5.80;99.90
37204;DHT22;23098;48.054;10.636;2023-11-21T05:18:02;5.80;99.90
37204;DHT22;23098;48.054;10.636;2023-11-21T05:20:28;5.80;99.90
37204;DHT22;23098;48.054;10.636;2023-11-21T05:22:54;5.80;99.90
37204;DHT22;23098;48.054;10.636;2023-11-21T05:25:19;5.80;99.90
37204;DHT22;23098;48.054;10.636;2023-11-21T05:27:48;5.80;99.90
37204;DHT22;23098;48.054;10.636;2023-11-21T05:30:14;5.70;99.90
37204;DHT22;23098;48.054;10.636;2023-11-21T05:32:40;5.70;99.90
37204;DHT22;23098;48.054;10.636;2023-11-21T05:35:09;5.70;99.90
37204;DHT22;23098;48.054;10.636;2023-11-21T05:37:40;5.70;99.90
37204;DHT22;23098;48.054;10.636;2023-11-21T05:40:07;5.70;99.90
37204;DHT22;23098;48.054;10.636;2023-11-21T05:42:34;5.70;99.90
37204;DHT22;23098;48.054;10.636;2023-11-21T05:44:59;5.70;99.90
37204;DHT22;23098;48.054;10.636;2023-11-21T05:50:04;5.70;99.90
37204;DHT22;23098;48.054;10.636;2023-11-21T05:52:31;5.70;99.90
37204;DHT22;23098;48.054;10.636;2023-11-21T05:54:57;5.70;99.90
37204;DHT22;23098;48.054;10.636;2023-11-21T05:57:23;5.70;99.90
37204;DHT22;23098;48.054;10.636;2023-11-21T05:59:48;5.70;99.90
37204;DHT22;23098;48.054;10.636;2023-11-21T06:02:14;5.70;99.90
37204;DHT22;23098;48.054;10.636;2023-11-21T06:04:40;5.80;99.90
37204;DHT22;23098;48.054;10.636;2023-11-21T06:07:05;5.80;99.90
37204;DHT22;23098;48.054;10.636;2023-11-21T06:09:31;5.80;99.90
37204;DHT22;23098;48.054;10.636;2023-11-21T06:11:56;5.80;99.90
37204;DHT22;23098;48.054;10.636;2023-11-21T06:14:22;5.80;99.90
37204;DHT22;23098;48.054;10.636;2023-11-21T06:16:47;5.80;99.90
37204;DHT22;23098;48.054;10.636;2023-11-21T06:19:13;5.80;99.90
37204;DHT22;23098;48.054;10.636;2023-11-21T06:21:39;5.80;99.90
37204;DHT22;23098;48.054;10.636;2023-11-21T06:24:05;5.80;99.90
37204;DHT22;23098;48.054;10.636;2023-11-21T06:26:30;5.80;99.90
37204;DHT22;23098;48.054;10.636;2023-11-21T06:28:57;5.80;99.90
37204;DHT22;23098;48.054;10.636;2023-11-21T06:31:22;5.80;99.90
37204;DHT22;23098;48.054;10.636;2023-11-21T06:33:48;5.80;99.90
37204;DHT22;23098;48.054;10.636;2023-11-21T06:36:15;5.80;99.90
37204;DHT22;23098;48.054;10.636;2023-11-21T06:38:40;5.80;99.90
37204;DHT22;23098;48.054;10.636;2023-11-21T06:41:06;5.80;99.90
37204;DHT22;23098;48.054;10.636;2023-11-21T06:43:32;5.90;99.90
37204;DHT22;23098;48.054;10.636;2023-11-21T06:45:58;5.90;99.90
37204;DHT22;23098;48.054;10.636;2023-11-21T06:48:23;5.90;99.90
37204;DHT22;23098;48.054;10.636;2023-11-21T06:50:49;5.90;99.90
37204;DHT22;23098;48.054;10.636;2023-11-21T06:53:14;5.90;99.90
37204;DHT22;23098;48.054;10.636;2023-11-21T06:55:40;5.90;99.90
37204;DHT22;23098;48.054;10.636;2023-11-21T06:58:05;6.00;99.90
37204;DHT22;23098;48.054;10.636;2023-11-21T07:00:31;6.00;99.90
37204;DHT22;23098;48.054;10.636;2023-11-21T07:02:56;6.00;99.90
37204;DHT22;23098;48.054;10.636;2023-11-21T07:05:22;6.00;99.90
37204;DHT22;23098;48.054;10.636;2023-11-21T07:07:48;5.90;99.90
37204;DHT22;23098;48.054;10.636;2023-11-21T07:10:14;5.90;99.90
37204;DHT22;23098;48.054;10.636;2023-11-21T07:12:40;5.90;99.90
37204;DHT22;23098;48.054;10.636;2023-11-21T07:15:07;5.80;99.90
37204;DHT22;23098;48.054;10.636;2023-11-21T07:17:35;5.80;99.90
37204;DHT22;23098;48.054;10.636;2023-11-21T07:20:01;5.80;99.90
37204;DHT22;23098;48.054;10.636;2023-11-21T07:22:26;5.80;99.90
37204;DHT22;23098;48.054;10.636;2023-11-21T07:24:52;5.80;99.90
37204;DHT22;23098;48.054;10.636;2023-11-21T07:27:18;5.80;99.90
37204;DHT22;23098;48.054;10.636;2023-11-21T07:29:44;5.80;99.90
37204;DHT22;23098;48.054;10.636;2023-11-21T07:32:09;5.90;99.90
37204;DHT22;23098;48.054;10.636;2023-11-21T07:34:36;6.00;99.90
37204;DHT22;23098;48.054;10.636;2023-11-21T07:37:02;6.00;99.90
37204;DHT22;23098;48.054;10.636;2023-11-21T07:39:28;6.10;99.90
37204;DHT22;23098;48.054;10.636;2023-11-21T07:41:53;6.10;99.90
37204;DHT22;23098;48.054;10.636;2023-11-21T07:44:19;6.20;99.90
37204;DHT22;23098;48.054;10.636;2023-11-21T07:46:45;6.20;99.90
37204;DHT22;23098;48.054;10.636;2023-11-21T07:49:11;6.30;99.90
37204;DHT22;23098;48.054;10.636;2023-11-21T07:51:40;6.30;99.90
37204;DHT22;23098;48.054;10.636;2023-11-21T07:54:05;6.40;99.90
37204;DHT22;23098;48.054;10.636;2023-11-21T07:56:31;6.40;99.90
37204;DHT22;23098;48.054;10.636;2023-11-21T07:58:56;6.40;99.90
37204;DHT22;23098;48.054;10.636;2023-11-21T08:01:22;6.50;99.90
37204;DHT22;23098;48.054;10.636;2023-11-21T08:03:47;6.50;99.90
37204;DHT22;23098;48.054;10.636;2023-11-21T08:06:16;6.50;99.90
37204;DHT22;23098;48.054;10.636;2023-11-21T08:08:42;6.60;99.90
37204;DHT22;23098;48.054;10.636;2023-11-21T08:11:08;6.60;99.90
37204;DHT22;23098;48.054;10.636;2023-11-21T08:13:35;6.70;99.90
37204;DHT22;23098;48.054;10.636;2023-11-21T08:16:01;6.70;99.90
37204;DHT22;23098;48.054;10.636;2023-11-21T08:18:30;6.80;99.90
37204;DHT22;23098;48.054;10.636;2023-11-21T08:20:56;6.80;99.90
37204;DHT22;23098;48.054;10.636;2023-11-21T08:23:22;6.90;99.90
37204;DHT22;23098;48.054;10.636;2023-11-21T08:25:51;6.90;99.90
37204;DHT22;23098;48.054;10.636;2023-11-21T08:28:18;7.00;99.90
37204;DHT22;23098;48.054;10.636;2023-11-21T08:30:43;7.10;99.90
37204;DHT22;23098;48.054;10.636;2023-11-21T08:33:09;7.10;99.90
37204;DHT22;23098;48.054;10.636;2023-11-21T08:35:36;7.10;99.90
37204;DHT22;23098;48.054;10.636;2023-11-21T08:38:03;7.20;99.90
37204;DHT22;23098;48.054;10.636;2023-11-21T08:40:28;7.20;99.90
37204;DHT22;23098;48.054;10.636;2023-11-21T08:42:54;7.30;99.90
37204;DHT22;23098;48.054;10.636;2023-11-21T08:45:21;7.30;99.90
37204;DHT22;23098;48.054;10.636;2023-11-21T08:47:47;7.30;99.90
37204;DHT22;23098;48.054;10.636;2023-11-21T08:50:13;7.30;99.90
37204;DHT22;23098;48.054;10.636;2023-11-21T08:52:40;7.30;99.90
37204;DHT22;23098;48.054;10.636;2023-11-21T08:55:06;7.30;99.90
37204;DHT22;23098;48.054;10.636;2023-11-21T08:57:38;7.30;99.90
37204;DHT22;23098;48.054;10.636;2023-11-21T09:00:04;7.30;99.90
37204;DHT22;23098;48.054;10.636;2023-11-21T09:02:33;7.30;99.90
37204;DHT22;23098;48.054;10.636;2023-11-21T09:05:00;7.30;99.90
37204;DHT22;23098;48.054;10.636;2023-11-21T09:07:28;7.40;99.90
37204;DHT22;23098;48.054;10.636;2023-11-21T09:09:54;7.50;99.90
37204;DHT22;23098;48.054;10.636;2023-11-21T09:12:20;7.60;99.90
37204;DHT22;23098;48.054;10.636;2023-11-21T09:14:46;7.70;99.90
37204;DHT22;23098;48.054;10.636;2023-11-21T09:17:11;7.80;99.90
37204;DHT22;23098;48.054;10.636;2023-11-21T09:19:40;7.90;99.90
37204;DHT22;23098;48.054;10.636;2023-11-21T09:22:06;7.90;99.90
37204;DHT22;23098;48.054;10.636;2023-11-21T09:24:32;7.80;99.90
37204;DHT22;23098;48.054;10.636;2023-11-21T09:26:58;7.80;99.90
37204;DHT22;23098;48.054;10.636;2023-11-21T09:29:25;8.00;99.90
37204;DHT22;23098;48.054;10.636;2023-11-21T09:31:51;8.10;99.90
37204;DHT22;23098;48.054;10.636;2023-11-21T09:34:17;8.10;99.90
37204;DHT22;23098;48.054;10.636;2023-11-21T09:36:46;8.30;99.90
37204;DHT22;23098;48.054;10.636;2023-11-21T09:39:12;8.20;99.90
37204;DHT22;23098;48.054;10.636;2023-11-21T09:44:17;8.20;99.90
37204;DHT22;23098;48.054;10.636;2023-11-21T09:46:43;8.20;99.90
37204;DHT22;23098;48.054;10.636;2023-11-21T09:49:09;8.10;99.90
37204;DHT22;23098;48.054;10.636;2023-11-21T09:51:42;8.20;99.90
37204;DHT22;23098;48.054;10.636;2023-11-21T09:54:10;8.10;99.90
37204;DHT22;23098;48.054;10.636;2023-11-21T09:56:37;8.10;99.90
37204;DHT22;23098;48.054;10.636;2023-11-21T09:59:03;8.00;99.90
37204;DHT22;23098;48.054;10.636;2023-11-21T10:01:33;7.90;99.90
37204;DHT22;23098;48.054;10.636;2023-11-21T10:04:00;7.90;99.90
37204;DHT22;23098;48.054;10.636;2023-11-21T10:06:26;7.90;99.90
37204;DHT22;23098;48.054;10.636;2023-11-21T10:08:53;8.00;99.90
37204;DHT22;23098;48.054;10.636;2023-11-21T10:11:23;8.00;99.90
37204;DHT22;23098;48.054;10.636;2023-11-21T10:13:53;8.10;99.90
37204;DHT22;23098;48.054;10.636;2023-11-21T10:16:19;8.40;99.90
37204;DHT22;23098;48.054;10.636;2023-11-21T10:18:48;8.50;99.90
37204;DHT22;23098;48.054;10.636;2023-11-21T10:21:15;8.50;99.90
37204;DHT22;23098;48.054;10.636;2023-11-21T10:23:40;8.50;99.90
37204;DHT22;23098;48.054;10.636;2023-11-21T10:26:07;8.50;99.90
37204;DHT22;23098;48.054;10.636;2023-11-21T10:28:35;8.60;99.90
37204;DHT22;23098;48.054;10.636;2023-11-21T10:31:02;8.60;99.90
37204;DHT22;23098;48.054;10.636;2023-11-21T10:33:28;8.70;99.90
37204;DHT22;23098;48.054;10.636;2023-11-21T10:35:54;8.60;99.90
37204;DHT22;23098;48.054;10.636;2023-11-21T10:38:21;8.70;99.90
37204;DHT22;23098;48.054;10.636;2023-11-21T10:40:49;8.80;99.90
37204;DHT22;23098;48.054;10.636;2023-11-21T10:43:15;8.70;99.90
37204;DHT22;23098;48.054;10.636;2023-11-21T10:45:42;8.60;99.90
37204;DHT22;23098;48.054;10.636;2023-11-21T10:48:09;8.80;99.90
37204;DHT22;23098;48.054;10.636;2023-11-21T10:50:40;8.90;99.90
37204;DHT22;23098;48.054;10.636;2023-11-21T10:53:06;8.90;99.90
37204;DHT22;23098;48.054;10.636;2023-11-21T10:55:32;8.90;99.90
37204;DHT22;23098;48.054;10.636;2023-11-21T10:58:00;8.90;99.90
37204;DHT22;23098;48.054;10.636;2023-11-21T11:00:28;8.90;99.90
37204;DHT22;23098;48.054;10.636;2023-11-21T11:02:54;8.80;99.90
37204;DHT22;23098;48.054;10.636;2023-11-21T11:05:22;8.80;99.90
37204;DHT22;23098;48.054;10.636;2023-11-21T11:07:51;8.70;99.90
37204;DHT22;23098;48.054;10.636;2023-11-21T11:10:21;8.70;99.90
37204;DHT22;23098;48.054;10.636;2023-11-21T11:12:48;8.50;99.90
37204;DHT22;23098;48.054;10.636;2023-11-21T11:15:16;8.40;99.90
37204;DHT22;23098;48.054;10.636;2023-11-21T11:17:42;8.50;99.90
37204;DHT22;23098;48.054;10.636;2023-11-21T11:20:12;8.70;99.90
37204;DHT22;23098;48.054;10.636;2023-11-21T11:22:48;8.90;99.90
37204;DHT22;23098;48.054;10.636;2023-11-21T11:27:59;8.90;99.90
37204;DHT22;23098;48.054;10.636;2023-11-21T11:33:36;9.30;99.90
37204;DHT22;23098;48.054;10.636;2023-11-21T11:36:06;9.50;99.90
37204;DHT22;23098;48.054;10.636;2023-11-21T11:38:34;9.70;99.90
37204;DHT22;23098;48.054;10.636;2023-11-21T11:41:05;9.90;99.90
37204;DHT22;23098;48.054;10.636;2023-11-21T11:43:32;9.80;99.90
37204;DHT22;23098;48.054;10.636;2023-11-21T11:46:10;9.70;99.90
37204;DHT22;23098;48.054;10.636;2023-11-21T11:48:39;9.60;99.90
37204;DHT22;23098;48.054;10.636;2023-11-21T11:51:12;9.50;99.90
37204;DHT22;23098;48.054;10.636;2023-11-21T11:53:46;9.40;99.90
37204;DHT22;23098;48.054;10.636;2023-11-21T11:56:28;9.60;99.90
37204;DHT22;23098;48.054;10.636;2023-11-21T11:58:57;9.50;99.90
37204;DHT22;23098;48.054;10.636;2023-11-21T12:01:25;9.10;99.90
37204;DHT22;23098;48.054;10.636;2023-11-21T12:06:44;9.00;99.90
37204;DHT22;23098;48.054;10.636;2023-11-21T12:09:23;8.80;99.90
37204;DHT22;23098;48.054;10.636;2023-11-21T12:11:49;8.90;99.90
37204;DHT22;23098;48.054;10.636;2023-11-21T12:14:15;9.00;99.90
37204;DHT22;23098;48.054;10.636;2023-11-21T12:16:42;9.20;99.90
37204;DHT22;23098;48.054;10.636;2023-11-21T12:19:11;9.30;99.90
37204;DHT22;23098;48.054;10.636;2023-11-21T12:21:37;9.10;99.90
37204;DHT22;23098;48.054;10.636;2023-11-21T12:24:03;9.10;99.90
37204;DHT22;23098;48.054;10.636;2023-11-21T12:26:29;9.10;99.90
37204;DHT22;23098;48.054;10.636;2023-11-21T12:28:55;9.20;99.90
37204;DHT22;23098;48.054;10.636;2023-11-21T12:31:21;9.10;99.90
37204;DHT22;23098;48.054;10.636;2023-11-21T12:33:47;9.10;99.90
37204;DHT22;23098;48.054;10.636;2023-11-21T12:36:13;9.00;99.90
37204;DHT22;23098;48.054;10.636;2023-11-21T12:38:38;8.90;99.90
37204;DHT22;23098;48.054;10.636;2023-11-21T12:41:05;8.90;99.90
37204;DHT22;23098;48.054;10.636;2023-11-21T12:43:32;9.10;99.90
37204;DHT22;23098;48.054;10.636;2023-11-21T12:46:08;9.50;99.90
37204;DHT22;23098;48.054;10.636;2023-11-21T12:48:39;9.60;99.90
37204;DHT22;23098;48.054;10.636;2023-11-21T12:51:06;9.60;99.90
37204;DHT22;23098;48.054;10.636;2023-11-21T12:53:32;9.70;99.90
37204;DHT22;23098;48.054;10.636;2023-11-21T12:56:03;9.80;99.90
37204;DHT22;23098;48.054;10.636;2023-11-21T12:58:31;9.80;99.90
37204;DHT22;23098;48.054;10.636;2023-11-21T13:00:59;9.80;99.90
37204;DHT22;23098;48.054;10.636;2023-11-21T13:03:25;10.00;99.90
37204;DHT22;23098;48.054;10.636;2023-11-21T13:05:51;10.30;99.90
37204;DHT22;23098;48.054;10.636;2023-11-21T13:08:20;10.80;99.90
37204;DHT22;23098;48.054;10.636;2023-11-21T13:10:50;11.20;99.90
37204;DHT22;23098;48.054;10.636;2023-11-21T13:13:16;11.50;99.90
37204;DHT22;23098;48.054;10.636;2023-11-21T13:15:52;11.60;99.90
37204;DHT22;23098;48.054;10.636;2023-11-21T13:18:28;11.50;99.90
37204;DHT22;23098;48.054;10.636;2023-11-21T13:20:58;11.60;99.90
37204;DHT22;23098;48.054;10.636;2023-11-21T13:23:25;11.80;99.90
37204;DHT22;23098;48.054;10.636;2023-11-21T13:25:51;11.90;99.50
37204;DHT22;23098;48.054;10.636;2023-11-21T13:28:17;11.50;99.20
37204;DHT22;23098;48.054;10.636;2023-11-21T13:30:46;11.20;99.40
37204;DHT22;23098;48.054;10.636;2023-11-21T13:33:13;10.60;99.90
37204;DHT22;23098;48.054;10.636;2023-11-21T13:35:44;10.10;99.90
37204;DHT22;23098;48.054;10.636;2023-11-21T13:38:14;10.10;99.90
37204;DHT22;23098;48.054;10.636;2023-11-21T13:40:47;9.90;99.90
37204;DHT22;23098;48.054;10.636;2023-11-21T13:43:17;10.00;99.90
37204;DHT22;23098;48.054;10.636;2023-11-21T13:45:48;10.00;99.90
37204;DHT22;23098;48.054;10.636;2023-11-21T13:48:17;10.00;99.90
37204;DHT22;23098;48.054;10.636;2023-11-21T13:50:50;10.00;99.90
37204;DHT22;23098;48.054;10.636;2023-11-21T13:53:34;9.80;99.90
37204;DHT22;23098;48.054;10.636;2023-11-21T13:56:02;9.70;99.90
37204;DHT22;23098;48.054;10.636;2023-11-21T13:58:28;9.70;99.90
37204;DHT22;23098;48.054;10.636;2023-11-21T14:01:13;9.70;99.90
37204;DHT22;23098;48.054;10.636;2023-11-21T14:04:00;9.70;99.90
37204;DHT22;23098;48.054;10.636;2023-11-21T14:06:46;9.80;99.90
37204;DHT22;23098;48.054;10.636;2023-11-21T14:09:17;9.60;99.90
37204;DHT22;23098;48.054;10.636;2023-11-21T14:11:49;9.40;99.90
37204;DHT22;23098;48.054;10.636;2023-11-21T14:14:16;9.50;99.90
37204;DHT22;23098;48.054;10.636;2023-11-21T14:16:43;9.30;99.90
37204;DHT22;23098;48.054;10.636;2023-11-21T14:19:10;9.40;99.90
37204;DHT22;23098;48.054;10.636;2023-11-21T14:21:41;9.50;99.90
37204;DHT22;23098;48.054;10.636;2023-11-21T14:24:14;9.50;99.90
37204;DHT22;23098;48.054;10.636;2023-11-21T14:26:41;9.50;99.90
37204;DHT22;23098;48.054;10.636;2023-11-21T14:29:08;9.40;99.90
37204;DHT22;23098;48.054;10.636;2023-11-21T14:31:34;9.40;99.90
37204;DHT22;23098;48.054;10.636;2023-11-21T14:34:00;9.30;99.90
37204;DHT22;23098;48.054;10.636;2023-11-21T14:36:28;9.20;99.90
37204;DHT22;23098;48.054;10.636;2023-11-21T14:38:54;9.00;99.90
37204;DHT22;23098;48.054;10.636;2023-11-21T14:41:19;8.90;99.90
37204;DHT22;23098;48.054;10.636;2023-11-21T14:43:45;8.70;99.90
37204;DHT22;23098;48.054;10.636;2023-11-21T14:46:13;8.60;99.90
37204;DHT22;23098;48.054;10.636;2023-11-21T14:48:42;8.50;99.90
37204;DHT22;23098;48.054;10.636;2023-11-21T14:51:09;8.40;99.90
37204;DHT22;23098;48.054;10.636;2023-11-21T14:53:38;8.30;99.90
37204;DHT22;23098;48.054;10.636;2023-11-21T14:56:22;7.90;99.90
37204;DHT22;23098;48.054;10.636;2023-11-21T14:58:56;7.50;99.90
37204;DHT22;23098;48.054;10.636;2023-11-21T15:01:23;7.20;99.90
37204;DHT22;23098;48.054;10.636;2023-11-21T15:04:08;7.10;99.90
37204;DHT22;23098;48.054;10.636;2023-11-21T15:06:42;6.90;99.90
37204;DHT22;23098;48.054;10.636;2023-11-21T15:09:08;6.80;99.90
37204;DHT22;23098;48.054;10.636;2023-11-21T15:11:34;6.70;99.90
37204;DHT22;23098;48.054;10.636;2023-11-21T15:14:00;6.70;99.90
37204;DHT22;23098;48.054;10.636;2023-11-21T15:16:26;6.70;99.90
37204;DHT22;23098;48.054;10.636;2023-11-21T15:18:52;6.60;99.90
37204;DHT22;23098;48.054;10.636;2023-11-21T15:21:21;6.60;99.90
37204;DHT22;23098;48.054;10.636;2023-11-21T15:23:47;6.60;99.90
37204;DHT22;23098;48.054;10.636;2023-11-21T15:26:13;6.60;99.90
37204;DHT22;23098;48.054;10.636;2023-11-21T15:28:39;6.60;99.90
37204;DHT22;23098;48.054;10.636;2023-11-21T15:31:04;6.60;99.90
37204;DHT22;23098;48.054;10.636;2023-11-21T15:33:30;6.60;99.90
37204;DHT22;23098;48.054;10.636;2023-11-21T15:35:56;6.60;99.90
37204;DHT22;23098;48.054;10.636;2023-11-21T15:38:23;6.50;99.90
37204;DHT22;23098;48.054;10.636;2023-11-21T15:40:49;6.50;99.90
37204;DHT22;23098;48.054;10.636;2023-11-21T15:43:15;6.50;99.90